Time;durP1;ratioP1;P1;durP2;ratioP2;P2;SDS_P1;SDS_P2;PMS_P1;PMS_P2;Temp;Humidity;BMP_temperature;BMP_pressure;BME280_temperature;BME280_humidity;BME280_pressure;Samples;Min_cycle;Max_cycle;Signal;HPM_P1;HPM_P2
2023/02/21 02:13:54;;;;;;;7.38;6.18;;;9.30;99.90;;;;;;4996688;28;20039;-57
2023/02/21 02:16:23;;;;;;;8.45;6.22;;;9.30;99.90;;;;;;4996503;28;20034;-55
2023/02/21 02:18:50;;;;;;;6.63;5.97;;;9.30;99.90;;;;;;4996995;28;20044;-57
2023/02/21 02:21:16;;;;;;;7.82;6.20;;;9.30;99.90;;;;;;5028309;28;20042;-58
2023/02/21 02:23:43;;;;;;;6.90;6.30;;;9.30;99.90;;;;;;4996424;28;20047;-57
2023/02/21 02:26:12;;;;;;;6.95;6.25;;;9.30;99.90;;;;;;4995401;28;20042;-59
2023/02/21 02:28:39;;;;;;;7.47;6.40;;;9.30;99.90;;;;;;4996438;28;20069;-58
2023/02/21 02:31:06;;;;;;;7.22;6.03;;;9.30;99.90;;;;;;4996520;28;20397;-57
2023/02/21 02:33:33;;;;;;;8.73;6.20;;;9.30;99.90;;;;;;4995033;28;20045;-58
2023/02/21 02:36:00;;;;;;;8.15;6.35;;;9.30;99.90;;;;;;4996302;28;20433;-55
2023/02/21 02:38:26;;;;;;;6.68;6.07;;;9.30;99.90;;;;;;4994492;28;20564;-59
2023/02/21 02:40:53;;;;;;;7.05;6.28;;;9.20;99.90;;;;;;4994893;28;20046;-57
2023/02/21 02:43:20;;;;;;;6.72;6.10;;;9.30;99.90;;;;;;4994705;28;20038;-58
2023/02/21 02:45:47;;;;;;;6.35;5.43;;;9.30;99.90;;;;;;4994722;28;20437;-59
2023/02/21 02:48:13;;;;;;;6.70;6.10;;;9.30;99.90;;;;;;5027647;28;20516;-59
2023/02/21 02:50:40;;;;;;;7.25;6.05;;;9.30;99.90;;;;;;4994764;28;20058;-58
2023/02/21 02:53:07;;;;;;;6.45;5.85;;;9.30;99.90;;;;;;4994740;28;20394;-55
2023/02/21 02:55:34;;;;;;;7.68;6.85;;;9.30;99.90;;;;;;4994556;28;20402;-57
2023/02/21 02:58:01;;;;;;;7.13;6.43;;;9.30;99.90;;;;;;4995901;28;20049;-60
2023/02/21 03:00:28;;;;;;;7.65;5.97;;;9.30;99.90;;;;;;4996027;28;20034;-59
2023/02/21 03:02:55;;;;;;;6.68;5.97;;;9.30;99.90;;;;;;4994457;28;20053;-57
2023/02/21 03:05:21;;;;;;;7.43;6.72;;;9.40;99.90;;;;;;4996059;28;20421;-59
2023/02/21 03:07:48;;;;;;;7.68;6.88;;;9.40;99.90;;;;;;4994833;28;20050;-59
2023/02/21 03:10:15;;;;;;;7.10;6.05;;;9.40;99.90;;;;;;4994261;28;20073;-59
2023/02/21 03:12:42;;;;;;;7.78;5.80;;;9.30;99.90;;;;;;4978435;28;20042;-59
2023/02/21 03:15:08;;;;;;;7.90;6.25;;;9.40;99.90;;;;;;4993758;28;20504;-59
2023/02/21 03:17:35;;;;;;;7.65;5.50;;;9.30;99.90;;;;;;4995681;28;20474;-57
2023/02/21 03:20:02;;;;;;;8.65;6.38;;;9.30;99.90;;;;;;4993981;28;20515;-56
2023/02/21 03:22:29;;;;;;;7.25;6.13;;;9.30;99.90;;;;;;4993912;28;20046;-59
2023/02/21 03:24:56;;;;;;;6.88;5.78;;;9.30;99.90;;;;;;4994145;28;20138;-57
2023/02/21 03:27:23;;;;;;;6.82;5.82;;;9.40;99.90;;;;;;4994180;28;20069;-59
2023/02/21 03:29:58;;;;;;;6.45;5.53;;;9.40;99.90;;;;;;4995195;28;20053;-59
2023/02/21 03:34:53;;;;;;;6.55;5.82;;;9.40;99.90;;;;;;4993994;28;20457;-56
2023/02/21 03:37:22;;;;;;;8.60;6.15;;;9.40;99.90;;;;;;4994038;28;20413;-57
2023/02/21 03:39:48;;;;;;;7.07;5.65;;;9.40;99.90;;;;;;4977706;28;20050;-57
2023/02/21 03:42:15;;;;;;;8.82;6.20;;;9.40;99.90;;;;;;4993576;28;20050;-55
2023/02/21 03:44:42;;;;;;;7.40;6.70;;;9.40;99.90;;;;;;4995274;28;20046;-55
2023/02/21 03:47:09;;;;;;;7.20;6.07;;;9.40;99.90;;;;;;4993536;28;20057;-51
2023/02/21 03:49:35;;;;;;;7.50;6.70;;;9.30;99.90;;;;;;4992803;28;20049;-53
2023/02/21 03:52:02;;;;;;;7.82;6.55;;;9.30;99.90;;;;;;4993254;28;20109;-55
2023/02/21 03:54:29;;;;;;;6.57;5.53;;;9.30;99.90;;;;;;4994496;28;20117;-56
2023/02/21 03:56:58;;;;;;;6.95;5.05;;;9.30;99.90;;;;;;4993097;28;20042;-60
2023/02/21 03:59:27;;;;;;;6.60;5.85;;;9.40;99.90;;;;;;4993283;28;20042;-56
2023/02/21 04:01:54;;;;;;;6.40;5.80;;;9.40;99.90;;;;;;4993424;28;20419;-57
2023/02/21 04:04:23;;;;;;;7.05;5.75;;;9.40;99.90;;;;;;4993522;28;20586;-58
2023/02/21 04:06:58;;;;;;;;;;;9.40;99.90;;;;;;4993845;28;20046;-59
2023/02/21 04:09:26;;;;;;;6.75;5.78;;;9.30;99.90;;;;;;4993667;28;19921;-57
2023/02/21 04:11:53;;;;;;;7.85;5.65;;;9.40;99.90;;;;;;4993426;28;20046;-59
2023/02/21 04:14:20;;;;;;;6.97;5.95;;;9.30;99.90;;;;;;4993171;28;20050;-58
2023/02/21 04:16:48;;;;;;;8.35;6.40;;;9.30;99.90;;;;;;4993503;28;20046;-58
2023/02/21 04:19:14;;;;;;;6.07;5.47;;;9.30;99.90;;;;;;4994557;28;20035;-59
2023/02/21 04:21:41;;;;;;;6.70;6.10;;;9.40;99.90;;;;;;4993444;28;20047;-60
2023/02/21 04:24:09;;;;;;;6.05;5.45;;;9.40;99.90;;;;;;4993284;28;20553;-57
2023/02/21 04:26:36;;;;;;;6.32;5.28;;;9.40;99.90;;;;;;4993217;28;20143;-60
2023/02/21 04:29:03;;;;;;;5.85;5.22;;;9.40;99.90;;;;;;5025949;28;20081;-59
2023/02/21 04:31:31;;;;;;;6.35;5.68;;;9.30;99.90;;;;;;4992815;28;20046;-60
2023/02/21 04:34:01;;;;;;;7.57;5.85;;;9.30;99.90;;;;;;4993128;28;20558;-59
2023/02/21 04:36:40;;;;;;;7.35;6.10;;;9.30;99.90;;;;;;4993152;28;20046;-56
2023/02/21 04:39:07;;;;;;;7.78;6.97;;;9.30;99.90;;;;;;4994624;28;20069;-57
2023/02/21 04:41:34;;;;;;;7.15;6.00;;;9.20;99.90;;;;;;4993011;28;20073;-57
2023/02/21 04:44:01;;;;;;;5.95;5.45;;;9.20;99.90;;;;;;4993207;28;20058;-59
2023/02/21 04:46:31;;;;;;;7.10;5.75;;;9.30;99.90;;;;;;4992724;28;20056;-58
2023/02/21 04:48:57;;;;;;;6.40;5.25;;;9.20;99.90;;;;;;4994226;28;20049;-60
2023/02/21 04:51:24;;;;;;;5.53;4.75;;;9.30;99.90;;;;;;4994274;28;20077;-55
2023/02/21 04:53:51;;;;;;;6.63;6.00;;;9.30;99.90;;;;;;4994047;28;20046;-60
2023/02/21 04:56:17;;;;;;;6.30;5.70;;;9.30;99.90;;;;;;4994196;28;20046;-59
2023/02/21 04:58:44;;;;;;;6.20;5.50;;;9.30;99.90;;;;;;4994413;28;20102;-58
2023/02/21 05:01:11;;;;;;;7.35;6.05;;;9.30;99.90;;;;;;4994715;28;20049;-58
2023/02/21 05:03:38;;;;;;;6.95;6.22;;;9.20;99.90;;;;;;4996844;28;20057;-59
2023/02/21 05:06:05;;;;;;;7.97;7.18;;;9.30;99.90;;;;;;4997039;28;20043;-57
2023/02/21 05:08:32;;;;;;;7.22;6.38;;;9.30;99.90;;;;;;4998200;28;20039;-55
2023/02/21 05:10:59;;;;;;;6.22;5.70;;;9.20;99.90;;;;;;4997893;28;20054;-60
2023/02/21 05:13:26;;;;;;;6.32;5.32;;;9.30;99.90;;;;;;4997568;28;20042;-60
2023/02/21 05:15:52;;;;;;;6.13;5.35;;;9.30;99.90;;;;;;4997643;28;20035;-59
2023/02/21 05:18:22;;;;;;;6.38;5.25;;;9.30;99.90;;;;;;4997699;28;20093;-58
2023/02/21 05:20:49;;;;;;;6.43;5.15;;;9.30;99.90;;;;;;4997410;28;20122;-59
2023/02/21 05:23:15;;;;;;;4.90;4.40;;;9.30;99.90;;;;;;4997580;28;20039;-60
2023/02/21 05:25:42;;;;;;;5.72;4.22;;;9.30;99.90;;;;;;4997303;28;20038;-60
2023/02/21 05:28:09;;;;;;;7.90;5.20;;;9.30;99.90;;;;;;4997284;28;20065;-59
2023/02/21 05:30:36;;;;;;;6.25;4.72;;;9.30;99.90;;;;;;4997456;28;20038;-59
2023/02/21 05:33:03;;;;;;;6.97;5.65;;;9.30;99.90;;;;;;4997249;28;20085;-59
2023/02/21 05:35:29;;;;;;;7.07;6.40;;;9.30;99.90;;;;;;4997329;28;20038;-61
2023/02/21 05:37:56;;;;;;;7.25;6.55;;;9.30;99.90;;;;;;4997835;28;20437;-59
2023/02/21 05:40:23;;;;;;;7.43;6.70;;;9.30;99.90;;;;;;4997324;28;20039;-60
2023/02/21 05:42:50;;;;;;;7.40;6.70;;;9.30;99.90;;;;;;4996774;28;20050;-60
2023/02/21 05:45:16;;;;;;;6.55;5.55;;;9.30;99.90;;;;;;4997207;28;20050;-56
2023/02/21 05:47:43;;;;;;;6.55;5.95;;;9.30;99.90;;;;;;4996838;28;20489;-59
2023/02/21 05:50:10;;;;;;;5.35;4.85;;;9.30;99.90;;;;;;4996894;28;20070;-57
2023/02/21 05:52:37;;;;;;;5.00;4.50;;;9.30;99.90;;;;;;4995442;28;20042;-57
2023/02/21 05:55:03;;;;;;;6.93;4.97;;;9.30;99.90;;;;;;4995965;28;20129;-57
2023/02/21 05:57:30;;;;;;;7.88;5.13;;;9.40;99.90;;;;;;4996850;28;20378;-58
2023/02/21 05:59:57;;;;;;;6.40;5.10;;;9.40;99.90;;;;;;4996986;28;20052;-58
2023/02/21 06:02:23;;;;;;;5.82;5.28;;;9.30;99.90;;;;;;4996593;28;20437;-58
2023/02/21 06:04:50;;;;;;;5.38;4.55;;;9.30;99.90;;;;;;4995580;28;20043;-57
2023/02/21 06:07:17;;;;;;;6.10;5.00;;;9.30;99.90;;;;;;4996968;28;20548;-56
2023/02/21 06:09:44;;;;;;;5.90;5.30;;;9.30;99.90;;;;;;4996749;28;20136;-60
2023/02/21 06:12:11;;;;;;;5.97;5.38;;;9.30;99.90;;;;;;4996801;28;20060;-59
2023/02/21 06:14:38;;;;;;;6.57;5.60;;;9.20;99.90;;;;;;4995933;28;20045;-57
2023/02/21 06:17:05;;;;;;;5.95;5.40;;;9.20;99.90;;;;;;4995367;28;20054;-59
2023/02/21 06:19:31;;;;;;;6.32;5.22;;;9.20;99.90;;;;;;4996837;28;20093;-53
2023/02/21 06:21:59;;;;;;;5.90;5.03;;;9.30;99.90;;;;;;4996518;28;20038;-59
2023/02/21 06:24:25;;;;;;;5.93;5.40;;;9.30;99.90;;;;;;4996648;28;20160;-58
2023/02/21 06:26:52;;;;;;;6.05;5.32;;;9.20;99.90;;;;;;4996720;28;20054;-59
2023/02/21 06:29:19;;;;;;;6.20;5.60;;;9.30;99.90;;;;;;4995221;28;20054;-60
2023/02/21 06:31:47;;;;;;;6.43;5.38;;;9.20;99.90;;;;;;4996594;28;20049;-60
2023/02/21 06:34:14;;;;;;;5.97;5.40;;;9.10;99.90;;;;;;4996276;28;20500;-60
2023/02/21 06:36:41;;;;;;;6.20;5.18;;;9.10;99.90;;;;;;4996240;28;20043;-60
2023/02/21 06:39:08;;;;;;;5.30;4.80;;;9.10;99.90;;;;;;4996343;28;20039;-58
2023/02/21 06:41:34;;;;;;;6.13;5.50;;;9.10;99.90;;;;;;4996341;28;20529;-60
2023/02/21 06:44:01;;;;;;;5.13;4.63;;;9.10;99.90;;;;;;4996160;28;20042;-59
2023/02/21 06:46:28;;;;;;;5.60;4.75;;;9.00;99.90;;;;;;4996382;28;20056;-55
2023/02/21 06:48:55;;;;;;;6.07;4.70;;;9.00;99.90;;;;;;4996264;28;20061;-59
2023/02/21 06:51:27;;;;;;;4.80;4.30;;;9.00;99.90;;;;;;4996033;28;20109;-57
2023/02/21 06:53:55;;;;;;;4.78;3.88;;;9.00;99.90;;;;;;4995854;28;20485;-61
2023/02/21 06:56:22;;;;;;;5.22;4.72;;;9.00;99.90;;;;;;4995279;28;20122;-59
2023/02/21 06:58:49;;;;;;;5.03;4.53;;;8.90;99.90;;;;;;4995286;28;20482;-60
2023/02/21 07:01:15;;;;;;;5.53;5.03;;;8.90;99.90;;;;;;4992743;28;20504;-60
2023/02/21 07:03:44;;;;;;;5.78;5.28;;;9.00;99.90;;;;;;4992968;28;20054;-60
2023/02/21 07:06:11;;;;;;;5.22;4.72;;;9.00;99.90;;;;;;4994255;28;20043;-60
2023/02/21 07:08:37;;;;;;;5.70;5.10;;;9.00;99.90;;;;;;4995393;28;20100;-59
2023/02/21 07:11:04;;;;;;;5.70;5.13;;;9.00;99.90;;;;;;4995493;28;20073;-61
2023/02/21 07:13:31;;;;;;;6.15;4.80;;;9.00;99.90;;;;;;4995731;28;20070;-59
2023/02/21 07:15:58;;;;;;;5.72;5.13;;;9.10;99.90;;;;;;4994077;28;20145;-57
2023/02/21 07:18:25;;;;;;;5.90;5.30;;;9.10;99.90;;;;;;4994354;28;20047;-59
2023/02/21 07:20:51;;;;;;;5.30;4.80;;;9.10;99.90;;;;;;4993912;28;20049;-57
2023/02/21 07:23:18;;;;;;;5.57;5.07;;;9.20;99.90;;;;;;4993024;28;20142;-56
2023/02/21 07:25:45;;;;;;;6.53;5.43;;;9.10;99.90;;;;;;4992748;28;20049;-58
2023/02/21 07:28:11;;;;;;;5.25;4.75;;;9.10;99.90;;;;;;4993847;28;20117;-57
2023/02/21 07:30:38;;;;;;;5.43;4.93;;;9.10;99.90;;;;;;4993880;28;20049;-57
2023/02/21 07:33:05;;;;;;;5.50;4.97;;;9.10;99.90;;;;;;4994376;28;20486;-57
2023/02/21 07:35:32;;;;;;;5.45;4.93;;;9.20;99.90;;;;;;4994785;28;20085;-58
2023/02/21 07:37:58;;;;;;;5.35;4.85;;;9.20;99.90;;;;;;4995212;28;20034;-58
2023/02/21 07:40:25;;;;;;;6.60;6.00;;;9.20;99.90;;;;;;4995042;28;20042;-56
2023/02/21 07:42:52;;;;;;;6.78;6.18;;;9.20;99.90;;;;;;4994819;28;20476;-59
2023/02/21 07:45:19;;;;;;;7.53;6.07;;;9.20;99.90;;;;;;4994495;28;20053;-59
2023/02/21 07:47:46;;;;;;;6.88;6.18;;;9.20;99.90;;;;;;4994594;28;20046;-59
2023/02/21 07:50:14;;;;;;;6.45;5.85;;;9.20;99.90;;;;;;4994693;28;20066;-59
2023/02/21 07:52:41;;;;;;;6.38;5.78;;;9.20;99.90;;;;;;4994671;28;20118;-59
2023/02/21 07:55:08;;;;;;;6.35;5.75;;;9.30;99.90;;;;;;4994585;28;20046;-58
2023/02/21 07:57:34;;;;;;;5.70;5.15;;;9.30;99.90;;;;;;4994826;28;20466;-59
2023/02/21 08:00:01;;;;;;;7.15;5.78;;;9.30;99.90;;;;;;4994516;28;20038;-59
2023/02/21 08:02:38;;;;;;;6.80;6.20;;;9.30;99.90;;;;;;4994394;28;20057;-59
2023/02/21 08:05:05;;;;;;;7.70;6.38;;;9.30;99.90;;;;;;4994509;28;20058;-59
2023/02/21 08:07:31;;;;;;;7.60;6.90;;;9.30;99.90;;;;;;4994882;28;20054;-57
2023/02/21 08:09:58;;;;;;;8.77;5.97;;;9.30;99.90;;;;;;4993427;28;20053;-60
2023/02/21 08:12:25;;;;;;;6.53;5.90;;;9.40;99.90;;;;;;4994455;28;20046;-57
2023/02/21 08:14:51;;;;;;;6.70;6.10;;;9.40;99.90;;;;;;4994476;28;20532;-58
2023/02/21 08:17:18;;;;;;;7.10;6.40;;;9.40;99.90;;;;;;4994102;28;20066;-58
2023/02/21 08:19:45;;;;;;;6.93;6.25;;;9.40;99.90;;;;;;4992628;28;20050;-58
2023/02/21 08:22:12;;;;;;;7.38;6.32;;;9.40;99.90;;;;;;4994620;28;20536;-57
2023/02/21 08:24:39;;;;;;;7.95;7.15;;;9.50;99.90;;;;;;4994385;28;20050;-58
2023/02/21 08:27:05;;;;;;;7.70;6.88;;;9.50;99.90;;;;;;4994468;28;20053;-55
2023/02/21 08:29:32;;;;;;;6.80;6.20;;;9.50;99.90;;;;;;4994237;28;20137;-58
2023/02/21 08:31:59;;;;;;;7.82;6.88;;;9.50;99.90;;;;;;4994446;28;20100;-55
2023/02/21 08:34:28;;;;;;;9.10;6.35;;;9.60;99.90;;;;;;4993918;28;20477;-59
2023/02/21 08:36:55;;;;;;;7.22;6.50;;;9.60;99.90;;;;;;4993568;28;20516;-58
2023/02/21 08:39:21;;;;;;;7.00;6.20;;;9.60;99.90;;;;;;4994515;28;20043;-58
2023/02/21 08:41:49;;;;;;;7.82;6.78;;;9.60;99.90;;;;;;4994540;28;20050;-59
2023/02/21 08:44:15;;;;;;;7.30;6.60;;;9.60;99.90;;;;;;4993897;28;20046;-59
2023/02/21 08:46:42;;;;;;;8.02;7.20;;;9.60;99.90;;;;;;4994384;28;20043;-57
2023/02/21 08:49:09;;;;;;;10.98;7.55;;;9.60;99.90;;;;;;4992614;28;20038;-57
2023/02/21 08:51:36;;;;;;;7.70;6.50;;;9.60;99.90;;;;;;4994425;28;20121;-60
2023/02/21 08:54:03;;;;;;;8.05;7.25;;;9.70;99.90;;;;;;4994048;28;20552;-60
2023/02/21 08:56:29;;;;;;;8.80;6.78;;;9.70;99.90;;;;;;4992957;28;20109;-60
2023/02/21 08:58:56;;;;;;;7.63;6.72;;;9.70;99.90;;;;;;4993727;28;20042;-58
2023/02/21 09:01:23;;;;;;;8.15;7.35;;;9.70;99.90;;;;;;4993993;28;20039;-60
2023/02/21 09:03:50;;;;;;;7.68;6.88;;;9.80;99.90;;;;;;4993665;28;20500;-59
2023/02/21 09:06:16;;;;;;;26.33;18.95;;;9.80;99.90;;;;;;4994024;28;20085;-60
2023/02/21 09:08:43;;;;;;;8.82;7.75;;;9.80;99.90;;;;;;4992361;28;20043;-58
2023/02/21 09:11:10;;;;;;;9.10;7.75;;;9.90;99.90;;;;;;4992173;28;20126;-58
2023/02/21 09:13:37;;;;;;;8.10;7.30;;;9.90;99.90;;;;;;4993331;28;20544;-60
2023/02/21 09:16:03;;;;;;;10.77;7.93;;;9.90;99.90;;;;;;4992151;28;20042;-57
2023/02/21 09:18:30;;;;;;;9.75;7.72;;;10.00;99.90;;;;;;4993967;28;20375;-58
2023/02/21 09:20:58;;;;;;;7.65;6.80;;;10.00;99.90;;;;;;4993706;28;20034;-60
2023/02/21 09:23:24;;;;;;;8.52;7.30;;;10.00;99.90;;;;;;4993779;28;20045;-59
2023/02/21 09:25:51;;;;;;;14.05;7.03;;;10.10;99.90;;;;;;4993905;28;20035;-59
2023/02/21 09:28:18;;;;;;;8.27;7.22;;;10.20;99.90;;;;;;4993514;28;20062;-60
2023/02/21 09:30:45;;;;;;;9.20;7.32;;;10.20;99.90;;;;;;4993806;28;20085;-59
2023/02/21 09:33:11;;;;;;;11.65;7.55;;;10.20;99.90;;;;;;4993333;28;20046;-59
2023/02/21 09:35:38;;;;;;;9.20;7.15;;;10.20;99.90;;;;;;4993277;28;20149;-59
2023/02/21 09:38:06;;;;;;;10.98;6.78;;;10.20;99.90;;;;;;4993624;28;20410;-57
2023/02/21 09:40:32;;;;;;;8.10;7.30;;;10.20;99.90;;;;;;4993503;28;20089;-59
2023/02/21 09:42:59;;;;;;;7.90;7.13;;;10.20;99.90;;;;;;4993573;28;20049;-60
2023/02/21 09:45:26;;;;;;;13.02;8.32;;;10.30;99.90;;;;;;4993593;28;20058;-58
2023/02/21 09:47:53;;;;;;;33.65;29.45;;;10.40;99.90;;;;;;4993542;28;20058;-59
2023/02/21 09:50:20;;;;;;;9.82;8.77;;;10.40;99.90;;;;;;4996993;28;20101;-61
2023/02/21 09:52:46;;;;;;;8.35;7.45;;;10.50;99.90;;;;;;4997074;28;20042;-58
2023/02/21 09:55:13;;;;;;;7.88;6.97;;;10.50;99.90;;;;;;4997027;28;20038;-59
2023/02/21 09:57:40;;;;;;;8.48;7.68;;;10.60;99.90;;;;;;4997092;28;20452;-60
2023/02/21 10:00:07;;;;;;;8.20;7.35;;;10.70;99.90;;;;;;4996830;28;20046;-58
2023/02/21 10:02:34;;;;;;;9.13;7.80;;;10.80;99.90;;;;;;4996805;28;20442;-60
2023/02/21 10:05:01;;;;;;;9.77;8.07;;;10.80;99.90;;;;;;4996995;28;20551;-58
2023/02/21 10:07:30;;;;;;;9.65;8.60;;;10.80;99.90;;;;;;4996650;28;20426;-59
2023/02/21 10:09:57;;;;;;;9.68;8.55;;;10.90;99.90;;;;;;4996712;28;20056;-57
2023/02/21 10:12:24;;;;;;;9.55;8.65;;;10.80;99.90;;;;;;4996635;28;20113;-56
2023/02/21 10:14:51;;;;;;;9.77;8.77;;;10.90;99.90;;;;;;4996435;28;20046;-60
2023/02/21 10:17:17;;;;;;;9.15;8.25;;;10.90;99.90;;;;;;4996617;28;20046;-60
2023/02/21 10:19:44;;;;;;;9.50;8.50;;;10.90;99.90;;;;;;4996637;28;20046;-60
2023/02/21 10:22:11;;;;;;;9.30;8.40;;;10.90;99.90;;;;;;4995310;28;20035;-56
2023/02/21 10:24:38;;;;;;;8.90;8.00;;;11.00;99.90;;;;;;4996285;28;20035;-60
2023/02/21 10:27:04;;;;;;;11.00;9.07;;;11.00;99.90;;;;;;4996381;28;20045;-60
2023/02/21 10:29:31;;;;;;;10.68;9.57;;;11.00;99.90;;;;;;4996394;28;20097;-59
2023/02/21 10:31:58;;;;;;;10.77;9.35;;;11.00;99.90;;;;;;4996068;28;20430;-60
2023/02/21 10:34:25;;;;;;;9.73;8.73;;;11.00;99.90;;;;;;4996004;28;20481;-59
2023/02/21 10:36:52;;;;;;;9.95;9.05;;;11.10;99.90;;;;;;4996181;28;20096;-54
2023/02/21 10:39:18;;;;;;;10.68;9.32;;;11.10;99.90;;;;;;4996225;28;20053;-59
2023/02/21 10:41:45;;;;;;;10.55;9.45;;;11.20;99.90;;;;;;4996140;28;20043;-60
2023/02/21 10:44:12;;;;;;;13.50;9.02;;;11.20;99.90;;;;;;4995789;28;20077;-60
2023/02/21 10:46:39;;;;;;;11.13;10.05;;;11.20;99.90;;;;;;4996243;28;20441;-60
2023/02/21 10:49:05;;;;;;;10.75;9.65;;;11.20;99.90;;;;;;4995865;28;20046;-58
2023/02/21 10:51:32;;;;;;;11.07;10.02;;;11.20;99.90;;;;;;4995813;28;20203;-59
2023/02/21 10:53:59;;;;;;;12.40;11.05;;;11.20;99.90;;;;;;4996022;28;20042;-57
2023/02/21 10:56:26;;;;;;;13.20;11.90;;;11.20;99.90;;;;;;4995789;28;20050;-56
2023/02/21 10:58:52;;;;;;;14.40;12.63;;;11.30;99.90;;;;;;4995214;28;20046;-59
2023/02/21 11:01:24;;;;;;;14.65;11.45;;;11.30;99.90;;;;;;4995826;28;20062;-60
2023/02/21 11:03:51;;;;;;;14.10;12.63;;;11.30;99.90;;;;;;4995555;28;20042;-60
2023/02/21 11:06:18;;;;;;;13.07;11.85;;;11.30;99.90;;;;;;4996052;28;20130;-60
2023/02/21 11:08:44;;;;;;;15.30;13.70;;;11.30;99.90;;;;;;4995625;28;20042;-58
2023/02/21 11:11:11;;;;;;;16.30;14.18;;;11.40;99.90;;;;;;4995496;28;20552;-57
2023/02/21 11:13:38;;;;;;;16.42;14.80;;;11.40;99.90;;;;;;4995298;28;20074;-57
2023/02/21 11:16:05;;;;;;;16.88;15.18;;;11.30;99.90;;;;;;4995237;28;20481;-58
2023/02/21 11:18:32;;;;;;;18.05;16.25;;;11.30;99.90;;;;;;4995435;28;20100;-58
2023/02/21 11:21:00;;;;;;;19.77;17.63;;;11.30;99.90;;;;;;4995567;28;20527;-54
2023/02/21 11:23:27;;;;;;;21.33;19.13;;;11.30;99.90;;;;;;4994229;28;20035;-59
2023/02/21 11:25:53;;;;;;;22.15;19.80;;;11.20;99.90;;;;;;4995273;28;20046;-56
2023/02/21 11:28:20;;;;;;;24.38;21.77;;;11.30;99.90;;;;;;4995443;28;20046;-57
2023/02/21 11:30:47;;;;;;;25.90;23.10;;;11.20;99.90;;;;;;4995190;28;20046;-59
2023/02/21 11:33:14;;;;;;;24.90;21.90;;;11.20;99.90;;;;;;4995283;28;20042;-57
2023/02/21 11:35:41;;;;;;;23.13;20.85;;;11.20;99.90;;;;;;4993241;28;20387;-58
2023/02/21 11:38:08;;;;;;;23.95;21.20;;;11.20;99.90;;;;;;4994810;28;20042;-59
2023/02/21 11:40:36;;;;;;;53.55;23.23;;;11.20;99.90;;;;;;4995152;28;20474;-57
2023/02/21 11:43:03;;;;;;;24.60;19.42;;;11.10;99.90;;;;;;4995066;28;20455;-57
2023/02/21 11:45:30;;;;;;;19.92;17.70;;;11.10;99.90;;;;;;4994642;28;20523;-57
2023/02/21 11:47:57;;;;;;;19.58;17.48;;;11.10;99.90;;;;;;4994630;28;20050;-59
2023/02/21 11:50:23;;;;;;;20.40;17.08;;;11.10;99.90;;;;;;4994817;28;20042;-59
2023/02/21 11:52:50;;;;;;;17.45;15.35;;;11.10;99.90;;;;;;4994835;28;20072;-57
2023/02/21 11:55:17;;;;;;;27.85;22.77;;;11.20;99.90;;;;;;4993430;28;20489;-59
2023/02/21 11:57:45;;;;;;;19.27;17.30;;;11.30;99.90;;;;;;4994650;28;20113;-58
2023/02/21 12:00:11;;;;;;;19.73;17.40;;;11.40;99.90;;;;;;4994567;28;20117;-57
2023/02/21 12:02:38;;;;;;;19.23;17.23;;;11.40;99.90;;;;;;4994166;28;20129;-58
2023/02/21 12:05:05;;;;;;;18.27;16.27;;;11.40;99.90;;;;;;4994236;28;20034;-57
2023/02/21 12:07:34;;;;;;;17.85;15.98;;;11.40;99.90;;;;;;4994473;28;20437;-57
2023/02/21 12:10:01;;;;;;;17.33;14.25;;;11.40;99.90;;;;;;4994463;28;20038;-61
2023/02/21 12:12:28;;;;;;;19.73;14.82;;;11.50;99.90;;;;;;4993834;28;20061;-58
2023/02/21 12:14:55;;;;;;;18.58;14.68;;;11.40;99.90;;;;;;4994473;28;20385;-57
2023/02/21 12:17:22;;;;;;;16.65;14.77;;;11.40;99.90;;;;;;4994170;28;20097;-58
2023/02/21 12:19:48;;;;;;;16.70;14.32;;;11.50;99.90;;;;;;4993044;28;20054;-59
2023/02/21 12:22:15;;;;;;;14.98;13.48;;;11.50;99.90;;;;;;4994123;28;20050;-59
2023/02/21 12:24:42;;;;;;;15.95;13.32;;;11.50;99.90;;;;;;4993223;28;20130;-58
2023/02/21 12:27:11;;;;;;;16.20;12.43;;;11.50;99.90;;;;;;4994564;28;20473;-57
2023/02/21 12:29:37;;;;;;;14.48;12.57;;;11.50;99.90;;;;;;4994314;28;20053;-55
2023/02/21 12:32:04;;;;;;;15.57;12.57;;;11.50;99.90;;;;;;4993645;28;20053;-58
2023/02/21 12:34:31;;;;;;;15.23;13.02;;;11.60;99.90;;;;;;4994486;28;20137;-57
2023/02/21 12:36:58;;;;;;;13.57;11.75;;;11.60;99.90;;;;;;4993983;28;20038;-59
2023/02/21 12:39:26;;;;;;;15.20;11.73;;;11.60;99.90;;;;;;4994068;28;20073;-59
2023/02/21 12:41:53;;;;;;;14.05;11.60;;;11.60;99.90;;;;;;4994051;28;20358;-56
2023/02/21 12:44:20;;;;;;;12.68;10.50;;;11.60;99.90;;;;;;4993755;28;20050;-56
2023/02/21 12:46:47;;;;;;;12.25;10.82;;;11.50;99.90;;;;;;4994293;28;20073;-58
2023/02/21 12:49:13;;;;;;;12.05;10.07;;;11.50;99.90;;;;;;4993860;28;20054;-56
2023/02/21 12:51:40;;;;;;;11.40;9.75;;;11.50;99.90;;;;;;4993837;28;20050;-59
2023/02/21 12:54:07;;;;;;;12.07;10.88;;;11.50;99.90;;;;;;4993954;28;20042;-57
2023/02/21 12:56:34;;;;;;;18.15;12.80;;;11.50;99.90;;;;;;4994077;28;20050;-59
2023/02/21 12:59:02;;;;;;;17.73;12.10;;;11.40;99.90;;;;;;4994211;28;20046;-58
2023/02/21 13:01:28;;;;;;;13.48;11.98;;;11.50;99.90;;;;;;4976498;28;20038;-59
2023/02/21 13:03:55;;;;;;;13.63;12.23;;;11.50;99.90;;;;;;4993711;28;20109;-59
2023/02/21 13:06:22;;;;;;;14.38;12.60;;;11.40;99.90;;;;;;4993757;28;20382;-59
2023/02/21 13:08:49;;;;;;;16.08;12.90;;;11.40;99.90;;;;;;4993693;28;20050;-59
2023/02/21 13:11:15;;;;;;;69.63;62.35;;;11.40;99.90;;;;;;4994047;28;20474;-59
2023/02/21 13:13:42;;;;;;;20.40;17.15;;;11.40;99.90;;;;;;4992909;28;20050;-56
2023/02/21 13:16:11;;;;;;;15.00;13.45;;;11.40;99.90;;;;;;4993743;28;20046;-58
2023/02/21 13:18:38;;;;;;;15.00;13.40;;;11.40;99.90;;;;;;4993578;28;20046;-59
2023/02/21 13:21:05;;;;;;;14.82;13.18;;;11.40;99.90;;;;;;4993483;28;20042;-60
2023/02/21 13:26:36;;;;;;;18.02;12.52;;;11.40;99.90;;;;;;4997515;28;20053;-59
2023/02/21 13:29:02;;;;;;;18.25;14.05;;;11.50;99.90;;;;;;4997329;28;20038;-59
2023/02/21 13:31:35;;;;;;;15.57;13.15;;;11.50;99.90;;;;;;4997330;28;20393;-59
2023/02/21 13:34:02;;;;;;;15.65;13.98;;;11.50;99.90;;;;;;4997288;28;20504;-58
2023/02/21 13:36:29;;;;;;;16.83;14.68;;;11.50;99.90;;;;;;4997212;28;20047;-59
2023/02/21 13:38:56;;;;;;;634.80;429.88;;;11.40;99.90;;;;;;4997464;28;20047;-56
2023/02/21 13:41:23;;;;;;;121.45;106.70;;;11.40;99.90;;;;;;4997004;28;20092;-60
2023/02/21 13:43:49;;;;;;;41.55;34.97;;;11.40;99.90;;;;;;4996985;28;20054;-59
2023/02/21 13:46:16;;;;;;;58.63;52.65;;;11.50;99.90;;;;;;4996816;28;20038;-58
2023/02/21 13:48:43;;;;;;;20.50;16.58;;;11.50;99.90;;;;;;4997046;28;20039;-59
2023/02/21 13:51:10;;;;;;;19.20;14.30;;;11.50;99.90;;;;;;4997277;28;20061;-56
2023/02/21 13:53:36;;;;;;;57.53;16.55;;;11.40;99.90;;;;;;4996843;28;20047;-58
2023/02/21 13:56:03;;;;;;;16.98;14.02;;;11.40;99.90;;;;;;4997017;28;20050;-58
2023/02/21 13:58:30;;;;;;;16.92;13.55;;;11.40;99.90;;;;;;4996871;28;20181;-58
2023/02/21 14:00:57;;;;;;;16.30;13.32;;;11.40;99.90;;;;;;4995674;28;20038;-58
2023/02/21 14:03:23;;;;;;;15.18;13.57;;;11.50;99.90;;;;;;4996551;28;20050;-58
2023/02/21 14:05:51;;;;;;;15.60;13.40;;;11.50;99.90;;;;;;4996941;28;20042;-59
2023/02/21 14:08:17;;;;;;;16.35;14.18;;;11.50;99.90;;;;;;4996704;28;20038;-58
2023/02/21 14:10:44;;;;;;;15.05;13.23;;;11.50;99.90;;;;;;4996676;28;20053;-56
2023/02/21 14:13:11;;;;;;;14.90;13.15;;;11.50;99.90;;;;;;4996835;28;20105;-59
2023/02/21 14:15:38;;;;;;;15.82;12.98;;;11.50;99.90;;;;;;4995549;28;20101;-59
2023/02/21 14:18:04;;;;;;;16.15;13.52;;;11.50;99.90;;;;;;4996731;28;20126;-56
2023/02/21 14:20:31;;;;;;;14.50;12.55;;;11.50;99.90;;;;;;4996498;28;20043;-60
2023/02/21 14:22:58;;;;;;;14.88;11.93;;;11.50;99.90;;;;;;4996253;28;20490;-59
2023/02/21 14:25:24;;;;;;;16.30;11.48;;;11.50;99.90;;;;;;4995363;28;20472;-60
2023/02/21 14:27:54;;;;;;;16.77;11.45;;;11.50;99.90;;;;;;4996037;28;20050;-59
2023/02/21 14:30:21;;;;;;;14.93;12.55;;;11.50;99.90;;;;;;4996355;28;20038;-59
2023/02/21 14:32:48;;;;;;;15.25;11.93;;;11.40;99.90;;;;;;4996091;28;20050;-60
2023/02/21 14:35:15;;;;;;;14.75;11.57;;;11.40;99.90;;;;;;4995316;28;20050;-59
2023/02/21 14:37:45;;;;;;;15.38;11.52;;;11.40;99.90;;;;;;4995893;28;20086;-59
2023/02/21 14:40:11;;;;;;;18.17;12.50;;;11.40;99.90;;;;;;4996313;28;20430;-58
2023/02/21 14:42:38;;;;;;;15.77;11.45;;;11.30;99.90;;;;;;4996077;28;20389;-60
2023/02/21 14:45:05;;;;;;;18.25;11.93;;;11.30;99.90;;;;;;4996299;28;20049;-59
2023/02/21 14:47:32;;;;;;;20.50;12.80;;;11.30;99.90;;;;;;4996042;28;20038;-60
2023/02/21 14:49:58;;;;;;;16.58;11.48;;;11.40;99.90;;;;;;4995829;28;20065;-59
2023/02/21 14:52:25;;;;;;;20.17;16.80;;;11.30;99.90;;;;;;4995848;28;20043;-59
2023/02/21 14:54:52;;;;;;;32.22;24.75;;;11.30;99.90;;;;;;4995797;28;20097;-58
2023/02/21 14:57:19;;;;;;;39.42;26.33;;;11.30;99.90;;;;;;4994254;28;20046;-60
2023/02/21 14:59:45;;;;;;;40.15;25.42;;;11.30;99.90;;;;;;4995817;28;20050;-59
2023/02/21 15:02:12;;;;;;;31.20;16.13;;;11.20;99.90;;;;;;4995313;28;20034;-60